sensor_id;sensor_type;location;lat;lon;timestamp;P1;durP1;ratioP1;P2;durP2;ratioP2
51594;SDS011;37677;53.254;6.594;2023-04-24T00:00:05;7.18;;;6.13;;
51594;SDS011;37677;53.254;6.594;2023-04-24T00:02:32;6.68;;;5.85;;
51594;SDS011;37677;53.254;6.594;2023-04-24T00:04:58;7.15;;;6.00;;
51594;SDS011;37677;53.254;6.594;2023-04-24T00:07:28;7.82;;;7.03;;
51594;SDS011;37677;53.254;6.594;2023-04-24T00:09:54;7.68;;;6.88;;
51594;SDS011;37677;53.254;6.594;2023-04-24T00:12:20;8.30;;;7.32;;
51594;SDS011;37677;53.254;6.594;2023-04-24T00:14:46;8.95;;;7.75;;
51594;SDS011;37677;53.254;6.594;2023-04-24T00:17:12;8.55;;;7.68;;
51594;SDS011;37677;53.254;6.594;2023-04-24T00:19:37;8.70;;;7.75;;
51594;SDS011;37677;53.254;6.594;2023-04-24T00:22:03;8.50;;;6.75;;
51594;SDS011;37677;53.254;6.594;2023-04-24T00:24:30;7.88;;;7.15;;
51594;SDS011;37677;53.254;6.594;2023-04-24T00:26:56;7.43;;;6.80;;
51594;SDS011;37677;53.254;6.594;2023-04-24T00:29:22;7.03;;;6.43;;
51594;SDS011;37677;53.254;6.594;2023-04-24T00:31:47;6.53;;;5.93;;
51594;SDS011;37677;53.254;6.594;2023-04-24T00:34:13;7.10;;;6.40;;
51594;SDS011;37677;53.254;6.594;2023-04-24T00:36:39;6.63;;;5.80;;
51594;SDS011;37677;53.254;6.594;2023-04-24T00:39:05;6.28;;;5.68;;
51594;SDS011;37677;53.254;6.594;2023-04-24T00:41:33;6.10;;;5.00;;
51594;SDS011;37677;53.254;6.594;2023-04-24T00:43:59;5.30;;;4.53;;
51594;SDS011;37677;53.254;6.594;2023-04-24T00:46:25;4.43;;;3.65;;
51594;SDS011;37677;53.254;6.594;2023-04-24T00:48:50;4.07;;;3.25;;
51594;SDS011;37677;53.254;6.594;2023-04-24T00:51:17;3.90;;;3.10;;
51594;SDS011;37677;53.254;6.594;2023-04-24T00:53:43;2.83;;;2.10;;
51594;SDS011;37677;53.254;6.594;2023-04-24T00:56:09;2.70;;;2.28;;
51594;SDS011;37677;53.254;6.594;2023-04-24T00:58:35;2.40;;;2.20;;
51594;SDS011;37677;53.254;6.594;2023-04-24T01:01:01;2.05;;;1.85;;
51594;SDS011;37677;53.254;6.594;2023-04-24T01:03:29;2.30;;;1.90;;
51594;SDS011;37677;53.254;6.594;2023-04-24T01:05:56;4.07;;;2.20;;
51594;SDS011;37677;53.254;6.594;2023-04-24T01:08:23;2.05;;;1.90;;
51594;SDS011;37677;53.254;6.594;2023-04-24T01:10:50;1.92;;;1.83;;
51594;SDS011;37677;53.254;6.594;2023-04-24T01:13:18;2.35;;;2.13;;
51594;SDS011;37677;53.254;6.594;2023-04-24T01:15:44;2.50;;;1.60;;
51594;SDS011;37677;53.254;6.594;2023-04-24T01:18:10;2.70;;;1.90;;
51594;SDS011;37677;53.254;6.594;2023-04-24T01:20:36;2.80;;;1.60;;
51594;SDS011;37677;53.254;6.594;2023-04-24T01:23:07;1.75;;;1.52;;
51594;SDS011;37677;53.254;6.594;2023-04-24T01:25:33;1.42;;;1.30;;
51594;SDS011;37677;53.254;6.594;2023-04-24T01:27:59;1.90;;;1.67;;
51594;SDS011;37677;53.254;6.594;2023-04-24T01:30:26;4.53;;;1.92;;
51594;SDS011;37677;53.254;6.594;2023-04-24T01:32:53;1.42;;;1.33;;
51594;SDS011;37677;53.254;6.594;2023-04-24T01:35:19;1.65;;;1.30;;
51594;SDS011;37677;53.254;6.594;2023-04-24T01:37:45;1.25;;;1.15;;
51594;SDS011;37677;53.254;6.594;2023-04-24T01:40:11;2.03;;;1.42;;
51594;SDS011;37677;53.254;6.594;2023-04-24T01:42:37;1.33;;;1.23;;
51594;SDS011;37677;53.254;6.594;2023-04-24T01:45:03;1.40;;;1.30;;
51594;SDS011;37677;53.254;6.594;2023-04-24T01:47:30;2.85;;;1.65;;
51594;SDS011;37677;53.254;6.594;2023-04-24T01:49:56;1.60;;;1.50;;
51594;SDS011;37677;53.254;6.594;2023-04-24T01:52:23;2.85;;;1.60;;
51594;SDS011;37677;53.254;6.594;2023-04-24T01:54:48;2.85;;;1.70;;
51594;SDS011;37677;53.254;6.594;2023-04-24T01:57:14;3.88;;;1.63;;
51594;SDS011;37677;53.254;6.594;2023-04-24T01:59:41;2.03;;;1.70;;
51594;SDS011;37677;53.254;6.594;2023-04-24T02:02:07;2.17;;;1.90;;
51594;SDS011;37677;53.254;6.594;2023-04-24T02:04:32;2.28;;;2.08;;
51594;SDS011;37677;53.254;6.594;2023-04-24T02:06:58;2.88;;;2.00;;
51594;SDS011;37677;53.254;6.594;2023-04-24T02:09:24;2.85;;;2.42;;
51594;SDS011;37677;53.254;6.594;2023-04-24T02:11:50;2.70;;;2.50;;
51594;SDS011;37677;53.254;6.594;2023-04-24T02:14:16;3.20;;;2.33;;
51594;SDS011;37677;53.254;6.594;2023-04-24T02:16:41;2.53;;;2.33;;
51594;SDS011;37677;53.254;6.594;2023-04-24T02:19:07;3.55;;;3.25;;
51594;SDS011;37677;53.254;6.594;2023-04-24T02:21:33;3.70;;;3.00;;
51594;SDS011;37677;53.254;6.594;2023-04-24T02:23:58;3.25;;;2.92;;
51594;SDS011;37677;53.254;6.594;2023-04-24T02:26:24;3.50;;;3.30;;
51594;SDS011;37677;53.254;6.594;2023-04-24T02:28:51;3.80;;;3.50;;
51594;SDS011;37677;53.254;6.594;2023-04-24T02:31:16;3.58;;;3.38;;
51594;SDS011;37677;53.254;6.594;2023-04-24T02:33:42;4.15;;;3.75;;
51594;SDS011;37677;53.254;6.594;2023-04-24T02:36:08;5.80;;;4.50;;
51594;SDS011;37677;53.254;6.594;2023-04-24T02:38:33;4.55;;;4.15;;
51594;SDS011;37677;53.254;6.594;2023-04-24T02:40:59;6.55;;;4.72;;
51594;SDS011;37677;53.254;6.594;2023-04-24T02:43:26;9.65;;;6.00;;
51594;SDS011;37677;53.254;6.594;2023-04-24T02:45:52;5.35;;;4.85;;
51594;SDS011;37677;53.254;6.594;2023-04-24T02:48:18;6.70;;;5.15;;
51594;SDS011;37677;53.254;6.594;2023-04-24T02:50:45;6.18;;;5.68;;
51594;SDS011;37677;53.254;6.594;2023-04-24T02:53:11;6.50;;;6.00;;
51594;SDS011;37677;53.254;6.594;2023-04-24T02:55:37;6.60;;;6.10;;
51594;SDS011;37677;53.254;6.594;2023-04-24T02:58:02;7.65;;;5.38;;
51594;SDS011;37677;53.254;6.594;2023-04-24T03:00:28;6.85;;;6.35;;
51594;SDS011;37677;53.254;6.594;2023-04-24T03:02:54;6.70;;;5.85;;
51594;SDS011;37677;53.254;6.594;2023-04-24T03:05:20;6.18;;;5.78;;
51594;SDS011;37677;53.254;6.594;2023-04-24T03:07:46;6.72;;;6.22;;
51594;SDS011;37677;53.254;6.594;2023-04-24T03:10:12;8.20;;;7.40;;
51594;SDS011;37677;53.254;6.594;2023-04-24T03:12:37;7.70;;;7.05;;
51594;SDS011;37677;53.254;6.594;2023-04-24T03:15:03;7.47;;;6.97;;
51594;SDS011;37677;53.254;6.594;2023-04-24T03:17:29;8.35;;;7.75;;
51594;SDS011;37677;53.254;6.594;2023-04-24T03:19:55;8.23;;;7.47;;
51594;SDS011;37677;53.254;6.594;2023-04-24T03:22:21;7.10;;;6.50;;
51594;SDS011;37677;53.254;6.594;2023-04-24T03:24:46;8.45;;;7.85;;
51594;SDS011;37677;53.254;6.594;2023-04-24T03:27:12;9.98;;;9.18;;
51594;SDS011;37677;53.254;6.594;2023-04-24T03:29:38;9.38;;;8.50;;
51594;SDS011;37677;53.254;6.594;2023-04-24T03:32:03;9.00;;;8.10;;
51594;SDS011;37677;53.254;6.594;2023-04-24T03:34:29;10.02;;;9.13;;
51594;SDS011;37677;53.254;6.594;2023-04-24T03:36:54;8.82;;;8.23;;
51594;SDS011;37677;53.254;6.594;2023-04-24T03:39:20;9.50;;;8.80;;
51594;SDS011;37677;53.254;6.594;2023-04-24T03:41:46;9.18;;;8.48;;
51594;SDS011;37677;53.254;6.594;2023-04-24T03:44:11;10.48;;;9.63;;
51594;SDS011;37677;53.254;6.594;2023-04-24T03:46:37;11.43;;;10.38;;
51594;SDS011;37677;53.254;6.594;2023-04-24T03:49:03;12.27;;;11.18;;
51594;SDS011;37677;53.254;6.594;2023-04-24T03:51:28;13.38;;;12.27;;
51594;SDS011;37677;53.254;6.594;2023-04-24T03:53:55;10.88;;;9.98;;
51594;SDS011;37677;53.254;6.594;2023-04-24T03:56:21;12.52;;;11.52;;
51594;SDS011;37677;53.254;6.594;2023-04-24T03:58:47;12.45;;;11.52;;
51594;SDS011;37677;53.254;6.594;2023-04-24T04:01:12;14.13;;;12.90;;
51594;SDS011;37677;53.254;6.594;2023-04-24T04:03:40;15.63;;;14.02;;
51594;SDS011;37677;53.254;6.594;2023-04-24T04:06:06;13.70;;;12.60;;
51594;SDS011;37677;53.254;6.594;2023-04-24T04:08:32;16.40;;;15.00;;
51594;SDS011;37677;53.254;6.594;2023-04-24T04:10:58;14.75;;;13.55;;
51594;SDS011;37677;53.254;6.594;2023-04-24T04:13:23;17.88;;;15.65;;
51594;SDS011;37677;53.254;6.594;2023-04-24T04:15:49;17.90;;;16.38;;
51594;SDS011;37677;53.254;6.594;2023-04-24T04:18:15;18.17;;;16.60;;
51594;SDS011;37677;53.254;6.594;2023-04-24T04:20:41;16.50;;;15.15;;
51594;SDS011;37677;53.254;6.594;2023-04-24T04:23:07;16.42;;;15.07;;
51594;SDS011;37677;53.254;6.594;2023-04-24T04:25:32;18.27;;;16.52;;
51594;SDS011;37677;53.254;6.594;2023-04-24T04:27:58;17.98;;;16.55;;
51594;SDS011;37677;53.254;6.594;2023-04-24T04:30:24;15.63;;;14.18;;
51594;SDS011;37677;53.254;6.594;2023-04-24T04:32:51;15.60;;;14.30;;
51594;SDS011;37677;53.254;6.594;2023-04-24T04:35:16;15.55;;;14.15;;
51594;SDS011;37677;53.254;6.594;2023-04-24T04:37:42;16.13;;;14.73;;
51594;SDS011;37677;53.254;6.594;2023-04-24T04:40:08;15.10;;;13.80;;
51594;SDS011;37677;53.254;6.594;2023-04-24T04:42:36;15.60;;;14.27;;
51594;SDS011;37677;53.254;6.594;2023-04-24T04:45:06;14.13;;;13.00;;
51594;SDS011;37677;53.254;6.594;2023-04-24T04:47:34;13.40;;;12.23;;
51594;SDS011;37677;53.254;6.594;2023-04-24T04:49:59;14.48;;;13.23;;
51594;SDS011;37677;53.254;6.594;2023-04-24T04:52:25;11.13;;;10.32;;
51594;SDS011;37677;53.254;6.594;2023-04-24T04:54:51;14.40;;;13.20;;
51594;SDS011;37677;53.254;6.594;2023-04-24T04:57:17;13.18;;;12.07;;
51594;SDS011;37677;53.254;6.594;2023-04-24T04:59:43;10.90;;;10.00;;
51594;SDS011;37677;53.254;6.594;2023-04-24T05:02:09;14.32;;;12.95;;
51594;SDS011;37677;53.254;6.594;2023-04-24T05:04:34;10.95;;;10.05;;
51594;SDS011;37677;53.254;6.594;2023-04-24T05:07:00;9.82;;;8.55;;
51594;SDS011;37677;53.254;6.594;2023-04-24T05:09:25;11.02;;;9.77;;
51594;SDS011;37677;53.254;6.594;2023-04-24T05:11:52;10.10;;;9.10;;
51594;SDS011;37677;53.254;6.594;2023-04-24T05:14:18;14.57;;;11.15;;
51594;SDS011;37677;53.254;6.594;2023-04-24T05:16:44;10.73;;;9.73;;
51594;SDS011;37677;53.254;6.594;2023-04-24T05:19:10;12.82;;;10.23;;
51594;SDS011;37677;53.254;6.594;2023-04-24T05:21:36;13.32;;;9.55;;
51594;SDS011;37677;53.254;6.594;2023-04-24T05:24:02;10.32;;;8.95;;
51594;SDS011;37677;53.254;6.594;2023-04-24T05:26:28;10.30;;;7.72;;
51594;SDS011;37677;53.254;6.594;2023-04-24T05:28:54;8.65;;;7.72;;
51594;SDS011;37677;53.254;6.594;2023-04-24T05:31:20;9.40;;;7.90;;
51594;SDS011;37677;53.254;6.594;2023-04-24T05:33:46;9.50;;;7.97;;
51594;SDS011;37677;53.254;6.594;2023-04-24T05:36:11;8.95;;;7.63;;
51594;SDS011;37677;53.254;6.594;2023-04-24T05:38:37;10.70;;;7.80;;
51594;SDS011;37677;53.254;6.594;2023-04-24T05:41:03;11.38;;;8.45;;
51594;SDS011;37677;53.254;6.594;2023-04-24T05:43:29;10.35;;;7.47;;
51594;SDS011;37677;53.254;6.594;2023-04-24T05:45:54;16.42;;;9.80;;
51594;SDS011;37677;53.254;6.594;2023-04-24T05:48:20;16.67;;;9.63;;
51594;SDS011;37677;53.254;6.594;2023-04-24T05:50:47;14.48;;;9.82;;
51594;SDS011;37677;53.254;6.594;2023-04-24T05:53:13;16.17;;;10.10;;
51594;SDS011;37677;53.254;6.594;2023-04-24T05:55:38;18.05;;;10.70;;
51594;SDS011;37677;53.254;6.594;2023-04-24T05:58:04;14.63;;;10.27;;
51594;SDS011;37677;53.254;6.594;2023-04-24T06:00:31;16.45;;;8.95;;
51594;SDS011;37677;53.254;6.594;2023-04-24T06:02:59;11.30;;;8.20;;
51594;SDS011;37677;53.254;6.594;2023-04-24T06:05:25;12.52;;;8.07;;
51594;SDS011;37677;53.254;6.594;2023-04-24T06:07:51;9.43;;;6.38;;
51594;SDS011;37677;53.254;6.594;2023-04-24T06:10:16;10.02;;;6.63;;
51594;SDS011;37677;53.254;6.594;2023-04-24T06:12:42;11.60;;;7.88;;
51594;SDS011;37677;53.254;6.594;2023-04-24T06:15:08;9.38;;;7.00;;
51594;SDS011;37677;53.254;6.594;2023-04-24T06:17:34;9.35;;;8.30;;
51594;SDS011;37677;53.254;6.594;2023-04-24T06:20:00;13.10;;;9.05;;
51594;SDS011;37677;53.254;6.594;2023-04-24T06:22:25;11.95;;;8.50;;
51594;SDS011;37677;53.254;6.594;2023-04-24T06:24:51;14.60;;;9.30;;
51594;SDS011;37677;53.254;6.594;2023-04-24T06:27:16;12.05;;;8.15;;
51594;SDS011;37677;53.254;6.594;2023-04-24T06:29:42;16.77;;;10.40;;
51594;SDS011;37677;53.254;6.594;2023-04-24T06:32:08;10.40;;;8.88;;
51594;SDS011;37677;53.254;6.594;2023-04-24T06:34:33;9.45;;;8.05;;
51594;SDS011;37677;53.254;6.594;2023-04-24T06:37:00;9.65;;;7.53;;
51594;SDS011;37677;53.254;6.594;2023-04-24T06:39:27;10.77;;;7.95;;
51594;SDS011;37677;53.254;6.594;2023-04-24T06:41:52;10.80;;;7.93;;
51594;SDS011;37677;53.254;6.594;2023-04-24T06:44:18;15.02;;;8.35;;
51594;SDS011;37677;53.254;6.594;2023-04-24T06:46:44;14.27;;;8.38;;
51594;SDS011;37677;53.254;6.594;2023-04-24T06:49:10;9.45;;;7.35;;
51594;SDS011;37677;53.254;6.594;2023-04-24T06:51:36;15.35;;;8.23;;
51594;SDS011;37677;53.254;6.594;2023-04-24T06:54:01;14.65;;;7.68;;
51594;SDS011;37677;53.254;6.594;2023-04-24T06:56:27;8.85;;;6.28;;
51594;SDS011;37677;53.254;6.594;2023-04-24T06:58:54;11.98;;;6.20;;
51594;SDS011;37677;53.254;6.594;2023-04-24T07:01:20;5.43;;;3.25;;
51594;SDS011;37677;53.254;6.594;2023-04-24T07:03:45;7.40;;;2.92;;
51594;SDS011;37677;53.254;6.594;2023-04-24T07:06:11;7.82;;;2.92;;
51594;SDS011;37677;53.254;6.594;2023-04-24T07:08:37;8.10;;;2.33;;
51594;SDS011;37677;53.254;6.594;2023-04-24T07:11:03;5.38;;;2.60;;
51594;SDS011;37677;53.254;6.594;2023-04-24T07:13:29;7.55;;;3.75;;
51594;SDS011;37677;53.254;6.594;2023-04-24T07:15:55;8.93;;;4.80;;
51594;SDS011;37677;53.254;6.594;2023-04-24T07:18:21;10.60;;;6.00;;
51594;SDS011;37677;53.254;6.594;2023-04-24T07:20:47;9.88;;;4.30;;
51594;SDS011;37677;53.254;6.594;2023-04-24T07:23:15;9.65;;;3.80;;
51594;SDS011;37677;53.254;6.594;2023-04-24T07:25:41;9.65;;;3.67;;
51594;SDS011;37677;53.254;6.594;2023-04-24T07:28:06;6.22;;;3.38;;
51594;SDS011;37677;53.254;6.594;2023-04-24T07:30:32;8.02;;;3.83;;
51594;SDS011;37677;53.254;6.594;2023-04-24T07:32:58;6.55;;;3.42;;
51594;SDS011;37677;53.254;6.594;2023-04-24T07:35:24;9.27;;;3.70;;
51594;SDS011;37677;53.254;6.594;2023-04-24T07:37:51;11.25;;;4.20;;
51594;SDS011;37677;53.254;6.594;2023-04-24T07:40:18;13.20;;;5.55;;
51594;SDS011;37677;53.254;6.594;2023-04-24T07:42:45;7.50;;;5.38;;
51594;SDS011;37677;53.254;6.594;2023-04-24T07:45:13;12.70;;;5.15;;
51594;SDS011;37677;53.254;6.594;2023-04-24T07:47:40;11.18;;;5.43;;
51594;SDS011;37677;53.254;6.594;2023-04-24T07:50:09;10.48;;;5.32;;
51594;SDS011;37677;53.254;6.594;2023-04-24T07:52:35;10.13;;;4.80;;
51594;SDS011;37677;53.254;6.594;2023-04-24T07:55:05;8.18;;;4.50;;
51594;SDS011;37677;53.254;6.594;2023-04-24T07:57:30;11.20;;;4.38;;
51594;SDS011;37677;53.254;6.594;2023-04-24T07:59:56;8.48;;;5.72;;
51594;SDS011;37677;53.254;6.594;2023-04-24T08:02:22;10.30;;;5.95;;
51594;SDS011;37677;53.254;6.594;2023-04-24T08:04:52;14.52;;;8.52;;
51594;SDS011;37677;53.254;6.594;2023-04-24T08:07:19;15.40;;;9.57;;
51594;SDS011;37677;53.254;6.594;2023-04-24T08:09:45;16.75;;;10.05;;
51594;SDS011;37677;53.254;6.594;2023-04-24T08:12:10;11.98;;;9.80;;
51594;SDS011;37677;53.254;6.594;2023-04-24T08:14:36;14.20;;;9.95;;
51594;SDS011;37677;53.254;6.594;2023-04-24T08:17:02;24.48;;;16.25;;
51594;SDS011;37677;53.254;6.594;2023-04-24T08:19:28;26.95;;;17.88;;
51594;SDS011;37677;53.254;6.594;2023-04-24T08:21:54;28.60;;;20.45;;
51594;SDS011;37677;53.254;6.594;2023-04-24T08:24:20;30.55;;;20.80;;
51594;SDS011;37677;53.254;6.594;2023-04-24T08:26:45;24.98;;;19.13;;
51594;SDS011;37677;53.254;6.594;2023-04-24T08:29:11;32.05;;;19.45;;
51594;SDS011;37677;53.254;6.594;2023-04-24T08:31:37;30.08;;;18.38;;
51594;SDS011;37677;53.254;6.594;2023-04-24T08:34:02;28.15;;;17.63;;
51594;SDS011;37677;53.254;6.594;2023-04-24T08:36:28;29.42;;;18.75;;
51594;SDS011;37677;53.254;6.594;2023-04-24T08:38:55;27.30;;;19.38;;
51594;SDS011;37677;53.254;6.594;2023-04-24T08:41:21;29.05;;;18.90;;
51594;SDS011;37677;53.254;6.594;2023-04-24T08:43:51;27.10;;;18.67;;
51594;SDS011;37677;53.254;6.594;2023-04-24T08:46:16;32.03;;;19.05;;
51594;SDS011;37677;53.254;6.594;2023-04-24T08:48:44;28.15;;;16.73;;
51594;SDS011;37677;53.254;6.594;2023-04-24T08:51:10;28.67;;;15.95;;
51594;SDS011;37677;53.254;6.594;2023-04-24T08:53:36;26.45;;;15.80;;
51594;SDS011;37677;53.254;6.594;2023-04-24T08:56:03;29.65;;;16.58;;
51594;SDS011;37677;53.254;6.594;2023-04-24T08:58:29;27.50;;;17.50;;
51594;SDS011;37677;53.254;6.594;2023-04-24T09:00:57;29.83;;;17.48;;
51594;SDS011;37677;53.254;6.594;2023-04-24T09:03:23;24.75;;;16.60;;
51594;SDS011;37677;53.254;6.594;2023-04-24T09:05:51;20.10;;;14.73;;
51594;SDS011;37677;53.254;6.594;2023-04-24T09:08:19;22.95;;;15.48;;
51594;SDS011;37677;53.254;6.594;2023-04-24T09:10:47;20.73;;;15.15;;
51594;SDS011;37677;53.254;6.594;2023-04-24T09:13:13;25.52;;;15.40;;
51594;SDS011;37677;53.254;6.594;2023-04-24T09:15:40;24.70;;;14.25;;
51594;SDS011;37677;53.254;6.594;2023-04-24T09:18:06;18.98;;;14.32;;
51594;SDS011;37677;53.254;6.594;2023-04-24T09:20:32;22.05;;;15.63;;
51594;SDS011;37677;53.254;6.594;2023-04-24T09:23:00;20.35;;;13.57;;
51594;SDS011;37677;53.254;6.594;2023-04-24T09:25:33;19.92;;;13.18;;
51594;SDS011;37677;53.254;6.594;2023-04-24T09:28:04;20.65;;;12.65;;
51594;SDS011;37677;53.254;6.594;2023-04-24T09:30:31;17.60;;;12.90;;
51594;SDS011;37677;53.254;6.594;2023-04-24T09:33:10;17.23;;;11.80;;
51594;SDS011;37677;53.254;6.594;2023-04-24T09:35:40;17.65;;;11.32;;
51594;SDS011;37677;53.254;6.594;2023-04-24T09:38:15;16.00;;;10.40;;
51594;SDS011;37677;53.254;6.594;2023-04-24T09:40:40;17.23;;;10.93;;
51594;SDS011;37677;53.254;6.594;2023-04-24T09:43:09;18.17;;;9.27;;
51594;SDS011;37677;53.254;6.594;2023-04-24T09:45:36;12.70;;;9.00;;
51594;SDS011;37677;53.254;6.594;2023-04-24T09:48:03;16.13;;;9.52;;
51594;SDS011;37677;53.254;6.594;2023-04-24T09:50:31;21.60;;;10.27;;
51594;SDS011;37677;53.254;6.594;2023-04-24T09:53:02;21.33;;;11.25;;
51594;SDS011;37677;53.254;6.594;2023-04-24T09:55:29;27.65;;;10.35;;
51594;SDS011;37677;53.254;6.594;2023-04-24T09:57:57;22.15;;;9.02;;
51594;SDS011;37677;53.254;6.594;2023-04-24T10:00:29;19.10;;;8.57;;
51594;SDS011;37677;53.254;6.594;2023-04-24T10:03:00;20.98;;;7.32;;
51594;SDS011;37677;53.254;6.594;2023-04-24T10:05:27;18.48;;;8.15;;
51594;SDS011;37677;53.254;6.594;2023-04-24T10:08:11;17.27;;;7.35;;
51594;SDS011;37677;53.254;6.594;2023-04-24T10:10:45;16.70;;;7.15;;
51594;SDS011;37677;53.254;6.594;2023-04-24T10:13:12;13.82;;;6.35;;
51594;SDS011;37677;53.254;6.594;2023-04-24T10:15:40;18.02;;;6.65;;
51594;SDS011;37677;53.254;6.594;2023-04-24T10:18:06;11.85;;;6.07;;
51594;SDS011;37677;53.254;6.594;2023-04-24T10:20:34;13.63;;;5.85;;
51594;SDS011;37677;53.254;6.594;2023-04-24T10:23:01;11.65;;;5.10;;
51594;SDS011;37677;53.254;6.594;2023-04-24T10:25:32;13.27;;;5.10;;
51594;SDS011;37677;53.254;6.594;2023-04-24T10:28:00;9.10;;;4.10;;
51594;SDS011;37677;53.254;6.594;2023-04-24T10:30:27;13.45;;;4.70;;
51594;SDS011;37677;53.254;6.594;2023-04-24T10:32:54;8.50;;;3.70;;
51594;SDS011;37677;53.254;6.594;2023-04-24T10:35:21;8.30;;;4.05;;
51594;SDS011;37677;53.254;6.594;2023-04-24T10:37:50;8.77;;;3.90;;
51594;SDS011;37677;53.254;6.594;2023-04-24T10:40:40;9.25;;;3.65;;
51594;SDS011;37677;53.254;6.594;2023-04-24T10:43:08;11.47;;;3.87;;
51594;SDS011;37677;53.254;6.594;2023-04-24T10:45:37;10.88;;;4.15;;
51594;SDS011;37677;53.254;6.594;2023-04-24T10:48:04;10.65;;;4.00;;
51594;SDS011;37677;53.254;6.594;2023-04-24T10:50:46;12.40;;;4.47;;
51594;SDS011;37677;53.254;6.594;2023-04-24T10:53:14;10.52;;;4.15;;
51594;SDS011;37677;53.254;6.594;2023-04-24T10:55:43;8.23;;;3.08;;
51594;SDS011;37677;53.254;6.594;2023-04-24T10:58:09;13.32;;;3.95;;
51594;SDS011;37677;53.254;6.594;2023-04-24T11:00:36;9.48;;;3.67;;
51594;SDS011;37677;53.254;6.594;2023-04-24T11:03:07;9.15;;;3.50;;
51594;SDS011;37677;53.254;6.594;2023-04-24T11:06:01;8.80;;;3.55;;
51594;SDS011;37677;53.254;6.594;2023-04-24T11:08:32;10.27;;;3.67;;
51594;SDS011;37677;53.254;6.594;2023-04-24T11:11:08;9.88;;;3.30;;
51594;SDS011;37677;53.254;6.594;2023-04-24T11:16:20;15.05;;;3.60;;
51594;SDS011;37677;53.254;6.594;2023-04-24T11:18:49;12.95;;;3.70;;
51594;SDS011;37677;53.254;6.594;2023-04-24T11:21:25;10.15;;;2.83;;
51594;SDS011;37677;53.254;6.594;2023-04-24T11:23:56;7.22;;;2.67;;
51594;SDS011;37677;53.254;6.594;2023-04-24T11:26:22;8.95;;;2.88;;
51594;SDS011;37677;53.254;6.594;2023-04-24T11:28:55;7.10;;;2.40;;
51594;SDS011;37677;53.254;6.594;2023-04-24T11:34:07;12.35;;;3.00;;
51594;SDS011;37677;53.254;6.594;2023-04-24T11:36:36;9.32;;;2.83;;
51594;SDS011;37677;53.254;6.594;2023-04-24T11:39:03;8.88;;;2.60;;
51594;SDS011;37677;53.254;6.594;2023-04-24T11:41:29;12.30;;;3.13;;
51594;SDS011;37677;53.254;6.594;2023-04-24T11:43:55;14.82;;;3.42;;
51594;SDS011;37677;53.254;6.594;2023-04-24T11:46:26;12.35;;;2.83;;
51594;SDS011;37677;53.254;6.594;2023-04-24T11:48:52;8.25;;;3.05;;
51594;SDS011;37677;53.254;6.594;2023-04-24T11:51:18;9.75;;;2.63;;
51594;SDS011;37677;53.254;6.594;2023-04-24T11:53:44;12.48;;;2.75;;
51594;SDS011;37677;53.254;6.594;2023-04-24T11:56:09;12.43;;;2.90;;
51594;SDS011;37677;53.254;6.594;2023-04-24T11:58:35;10.10;;;3.33;;
51594;SDS011;37677;53.254;6.594;2023-04-24T12:01:02;9.23;;;3.88;;
51594;SDS011;37677;53.254;6.594;2023-04-24T12:03:29;12.05;;;3.47;;
51594;SDS011;37677;53.254;6.594;2023-04-24T12:06:04;10.80;;;2.72;;
51594;SDS011;37677;53.254;6.594;2023-04-24T12:08:32;11.18;;;3.80;;
51594;SDS011;37677;53.254;6.594;2023-04-24T12:11:02;15.43;;;3.08;;
51594;SDS011;37677;53.254;6.594;2023-04-24T12:13:29;15.52;;;3.15;;
51594;SDS011;37677;53.254;6.594;2023-04-24T12:15:59;10.85;;;2.88;;
51594;SDS011;37677;53.254;6.594;2023-04-24T12:18:29;10.55;;;2.65;;
51594;SDS011;37677;53.254;6.594;2023-04-24T12:20:55;7.60;;;2.70;;
51594;SDS011;37677;53.254;6.594;2023-04-24T12:23:53;8.38;;;2.03;;
51594;SDS011;37677;53.254;6.594;2023-04-24T12:26:20;10.15;;;2.40;;
51594;SDS011;37677;53.254;6.594;2023-04-24T12:28:48;7.30;;;2.53;;
51594;SDS011;37677;53.254;6.594;2023-04-24T12:31:15;7.78;;;2.15;;
51594;SDS011;37677;53.254;6.594;2023-04-24T12:33:41;7.38;;;2.13;;
51594;SDS011;37677;53.254;6.594;2023-04-24T12:36:09;5.07;;;1.85;;
51594;SDS011;37677;53.254;6.594;2023-04-24T12:38:37;6.85;;;2.05;;
51594;SDS011;37677;53.254;6.594;2023-04-24T12:41:09;8.60;;;2.60;;
51594;SDS011;37677;53.254;6.594;2023-04-24T12:43:37;5.55;;;1.80;;
51594;SDS011;37677;53.254;6.594;2023-04-24T12:46:03;8.55;;;2.22;;
51594;SDS011;37677;53.254;6.594;2023-04-24T12:48:30;7.57;;;1.58;;
51594;SDS011;37677;53.254;6.594;2023-04-24T12:50:57;8.57;;;2.17;;
51594;SDS011;37677;53.254;6.594;2023-04-24T12:53:26;6.88;;;2.10;;
51594;SDS011;37677;53.254;6.594;2023-04-24T12:55:54;8.27;;;1.80;;
51594;SDS011;37677;53.254;6.594;2023-04-24T12:58:23;7.43;;;1.90;;
51594;SDS011;37677;53.254;6.594;2023-04-24T13:00:49;5.47;;;1.70;;
51594;SDS011;37677;53.254;6.594;2023-04-24T13:03:15;5.57;;;1.90;;
51594;SDS011;37677;53.254;6.594;2023-04-24T13:05:47;6.80;;;2.10;;
51594;SDS011;37677;53.254;6.594;2023-04-24T13:08:13;9.88;;;2.08;;
51594;SDS011;37677;53.254;6.594;2023-04-24T13:10:41;8.23;;;2.30;;
51594;SDS011;37677;53.254;6.594;2023-04-24T13:13:07;4.63;;;1.88;;
51594;SDS011;37677;53.254;6.594;2023-04-24T13:15:33;6.85;;;1.95;;
51594;SDS011;37677;53.254;6.594;2023-04-24T13:17:59;9.70;;;2.20;;
51594;SDS011;37677;53.254;6.594;2023-04-24T13:20:25;10.93;;;2.03;;
51594;SDS011;37677;53.254;6.594;2023-04-24T13:22:51;10.50;;;1.70;;
51594;SDS011;37677;53.254;6.594;2023-04-24T13:25:16;13.18;;;2.38;;
51594;SDS011;37677;53.254;6.594;2023-04-24T13:27:43;9.38;;;2.03;;
51594;SDS011;37677;53.254;6.594;2023-04-24T13:30:08;9.35;;;1.70;;
51594;SDS011;37677;53.254;6.594;2023-04-24T13:32:35;7.53;;;1.80;;
51594;SDS011;37677;53.254;6.594;2023-04-24T13:35:01;6.00;;;1.90;;
51594;SDS011;37677;53.254;6.594;2023-04-24T13:37:27;7.72;;;1.77;;
51594;SDS011;37677;53.254;6.594;2023-04-24T13:39:53;8.00;;;1.75;;
51594;SDS011;37677;53.254;6.594;2023-04-24T13:42:19;7.60;;;1.92;;
51594;SDS011;37677;53.254;6.594;2023-04-24T13:44:52;6.80;;;2.00;;
51594;SDS011;37677;53.254;6.594;2023-04-24T13:47:19;4.65;;;1.30;;
51594;SDS011;37677;53.254;6.594;2023-04-24T13:49:44;4.78;;;1.48;;
51594;SDS011;37677;53.254;6.594;2023-04-24T13:52:16;6.25;;;1.48;;
51594;SDS011;37677;53.254;6.594;2023-04-24T13:54:42;4.85;;;1.25;;
51594;SDS011;37677;53.254;6.594;2023-04-24T13:57:08;7.13;;;1.42;;
51594;SDS011;37677;53.254;6.594;2023-04-24T13:59:33;4.43;;;1.52;;
51594;SDS011;37677;53.254;6.594;2023-04-24T14:01:59;3.85;;;1.33;;
51594;SDS011;37677;53.254;6.594;2023-04-24T14:04:25;14.18;;;2.85;;
51594;SDS011;37677;53.254;6.594;2023-04-24T14:06:53;8.57;;;1.88;;
51594;SDS011;37677;53.254;6.594;2023-04-24T14:09:18;6.55;;;2.22;;
51594;SDS011;37677;53.254;6.594;2023-04-24T14:11:44;9.32;;;2.10;;
51594;SDS011;37677;53.254;6.594;2023-04-24T14:14:12;6.88;;;2.35;;
51594;SDS011;37677;53.254;6.594;2023-04-24T14:16:41;8.68;;;2.63;;
51594;SDS011;37677;53.254;6.594;2023-04-24T14:19:07;9.82;;;3.10;;
51594;SDS011;37677;53.254;6.594;2023-04-24T14:21:33;8.75;;;3.40;;
51594;SDS011;37677;53.254;6.594;2023-04-24T14:23:59;11.57;;;3.42;;
51594;SDS011;37677;53.254;6.594;2023-04-24T14:26:25;10.52;;;3.05;;
51594;SDS011;37677;53.254;6.594;2023-04-24T14:28:51;11.25;;;3.28;;
51594;SDS011;37677;53.254;6.594;2023-04-24T14:31:18;14.35;;;3.13;;
51594;SDS011;37677;53.254;6.594;2023-04-24T14:33:44;10.07;;;3.28;;
51594;SDS011;37677;53.254;6.594;2023-04-24T14:36:10;12.57;;;3.30;;
51594;SDS011;37677;53.254;6.594;2023-04-24T14:38:36;15.07;;;4.55;;
51594;SDS011;37677;53.254;6.594;2023-04-24T14:41:02;16.45;;;3.47;;